createdAt,value
2023-04-02T00:04:08.000Z,9.70
2023-04-02T00:14:09.000Z,10.20
2023-04-02T00:24:09.000Z,10.40
2023-04-02T00:34:09.000Z,11.60
2023-04-02T00:44:10.000Z,10.60
2023-04-02T00:54:10.000Z,14.50
2023-04-02T01:14:11.000Z,13.00
2023-04-02T01:24:12.000Z,12.40
2023-04-02T01:34:12.000Z,15.20
2023-04-02T01:44:12.000Z,14.00
2023-04-02T01:54:13.000Z,17.50
2023-04-02T02:04:13.000Z,14.40
2023-04-02T02:14:14.000Z,16.20
2023-04-02T02:24:14.000Z,16.50
2023-04-02T02:44:15.000Z,17.20
2023-04-02T02:54:16.000Z,16.70
2023-04-02T03:04:16.000Z,14.30
2023-04-02T03:14:17.000Z,20.40
2023-04-02T03:24:17.000Z,19.30
2023-04-02T03:34:18.000Z,18.30
2023-04-02T03:44:18.000Z,18.10
2023-04-02T03:54:19.000Z,13.80
2023-04-02T04:14:20.000Z,13.00
2023-04-02T04:24:20.000Z,12.40
2023-04-02T04:34:21.000Z,13.60
2023-04-02T04:44:21.000Z,10.70
2023-04-02T04:54:22.000Z,12.00
2023-04-02T05:04:22.000Z,10.60
2023-04-02T05:14:23.000Z,11.00
2023-04-02T05:24:23.000Z,10.40
2023-04-02T05:44:24.000Z,8.80
2023-04-02T05:54:25.000Z,8.80
2023-04-02T06:04:25.000Z,9.30
2023-04-02T06:14:25.000Z,7.70
2023-04-02T06:24:26.000Z,6.70
2023-04-02T06:34:26.000Z,9.20
2023-04-02T06:44:27.000Z,6.40
2023-04-02T06:54:27.000Z,7.80
2023-04-02T07:14:28.000Z,6.70
2023-04-02T07:24:29.000Z,4.50
2023-04-02T07:34:29.000Z,4.90
2023-04-02T07:44:30.000Z,6.60
2023-04-02T07:54:30.000Z,5.30
2023-04-02T08:04:31.000Z,5.90
2023-04-02T08:14:31.000Z,5.20
2023-04-02T08:39:49.000Z,5.50
2023-04-02T08:39:49.000Z,6.50
2023-04-02T08:49:49.000Z,5.50
2023-04-02T08:59:49.000Z,5.90
2023-04-02T09:09:49.000Z,6.20
2023-04-02T09:19:49.000Z,5.90
2023-04-02T09:29:48.000Z,6.20
2023-04-02T09:39:48.000Z,5.40
2023-04-02T10:20:41.000Z,5.80
2023-04-02T11:34:12.000Z,5.30
2023-04-02T11:34:12.000Z,5.10
2023-04-02T11:44:12.000Z,4.50
2023-04-02T12:24:48.000Z,4.50
2023-04-02T12:40:05.000Z,4.80
2023-04-02T12:40:05.000Z,5.00
2023-04-02T12:50:05.000Z,4.90
2023-04-02T13:00:04.000Z,4.60
2023-04-02T13:10:04.000Z,4.80
2023-04-02T13:35:39.000Z,5.80
2023-04-02T13:35:39.000Z,5.00
2023-04-02T14:05:55.000Z,4.80
2023-04-02T14:05:55.000Z,5.50
2023-04-02T14:15:55.000Z,6.00
2023-04-02T14:25:55.000Z,5.90
2023-04-02T14:35:54.000Z,5.60
2023-04-02T14:45:54.000Z,5.20
2023-04-02T14:55:54.000Z,6.10
2023-04-02T15:05:53.000Z,5.10
2023-04-02T15:15:53.000Z,6.20
2023-04-02T15:35:52.000Z,5.40
2023-04-02T15:45:52.000Z,5.10
2023-04-02T15:55:52.000Z,5.20
2023-04-02T16:05:51.000Z,4.80
2023-04-02T16:15:51.000Z,5.10
2023-04-02T16:25:50.000Z,5.30
2023-04-02T16:35:50.000Z,6.30
2023-04-02T16:45:50.000Z,5.80
2023-04-02T17:05:49.000Z,7.00
2023-04-02T17:15:49.000Z,7.00
2023-04-02T17:25:49.000Z,6.70
2023-04-02T17:35:49.000Z,8.00
2023-04-02T17:45:48.000Z,6.30
2023-04-02T17:55:48.000Z,6.70
2023-04-02T18:05:48.000Z,5.50
2023-04-02T18:15:48.000Z,11.00
2023-04-02T18:35:48.000Z,6.30
2023-04-02T18:45:48.000Z,5.60
2023-04-02T18:55:48.000Z,3.90
2023-04-02T19:05:47.000Z,4.20
2023-04-02T19:15:47.000Z,4.70
2023-04-02T19:25:47.000Z,4.60
2023-04-02T19:35:47.000Z,4.80
2023-04-02T19:45:47.000Z,4.30
2023-04-02T20:05:47.000Z,4.80
2023-04-02T20:15:47.000Z,5.10
2023-04-02T20:25:47.000Z,4.30
2023-04-02T20:35:47.000Z,4.00
2023-04-02T20:45:47.000Z,4.40
2023-04-02T20:55:47.000Z,4.50
2023-04-02T21:05:47.000Z,4.80
2023-04-02T21:15:47.000Z,4.40
2023-04-02T21:35:48.000Z,4.30
2023-04-02T21:45:48.000Z,4.60
2023-04-02T21:55:48.000Z,5.10
2023-04-02T22:05:48.000Z,4.80
2023-04-02T22:15:48.000Z,5.20
2023-04-02T22:25:48.000Z,4.60
2023-04-02T22:35:48.000Z,4.60
2023-04-02T22:45:48.000Z,4.60
2023-04-02T23:05:49.000Z,4.00
2023-04-02T23:15:49.000Z,4.70
2023-04-02T23:25:49.000Z,4.30
2023-04-02T23:35:49.000Z,4.10
2023-04-02T23:45:50.000Z,4.10
2023-04-02T23:55:50.000Z,5.10
